Metar Cercanos

 

LEPA - Palma De Mallorc, Spain
Distance from station: ONO 38km
Actualización: Tue, 07-Feb-2023 7:00pm CET
Muy nuboso
Muy nuboso
 Viento del ENE
Viento: ENE 13 km/h
Temperatura: 11°C
Rocío: 9°C
Humedad: 88%
Barómetro: 1021 hPa
Clouds: Muy nuboso
Visibility: 10 km
Cloud details: Parcialmente nuboso 549 m
Muy nuboso 914 m
2023/02/07 18:00 LEPA 071800Z 06007KT 9999 SCT018 BKN030 11/09 Q1021 NOSIG
LEMH - Mahon/Menorca Is, Spain
Distance from station: ENE 105km
Actualización: Tue, 07-Feb-2023 7:00pm CET
Lluvia débil, Few clouds
Lluvia débil, Few clouds
 Viento del ESE
Viento: ESE 37 km/h, Racha: 61 km/h
Temperatura: 11°C
Rocío: 8°C
Humedad: 82%
Barómetro: 1023 hPa
Resumen: Lluvia débil
Clouds: Few Clouds
Visibility: 10 km
Cloud details: Few Clouds 366 m
Muy nuboso 610 m
Few Clouds 914 m
2023/02/07 18:00 LEMH 071800Z 11020G33KT 9999 -RA FEW012 BKN020 FEW030TCU 11/08 Q1023
 
LEIB - Ibiza/Es Codola, Spain
Distance from station: OSO 165km
Actualización: Tue, 07-Feb-2023 7:00pm CET
Few Clouds
Few Clouds
 Viento del NNO
Viento: NNO 6 km/h
Temperatura: 11°C
Rocío: 8°C
Humedad: 82%
Barómetro: 1020 hPa
Clouds: Few Clouds
Visibility: 10 km
Cloud details: Few Clouds 671 m
2023/02/07 18:00 LEIB 071800Z 33003KT 230V030 9999 FEW022 11/08 Q1020 NOSIG
LEBL - Barcelona Airpor, Spain
Distance from station: NNO 225km
Actualización: Tue, 07-Feb-2023 7:00pm CET
Lluvia débil, Muy nuboso
Lluvia débil, Muy nuboso
 Viento del E
Viento: E 43 km/h, Racha: 61 km/h
Temperatura: 11°C
Rocío: 7°C
Humedad: 77%
Barómetro: 1025 hPa
Resumen: Lluvia débil
Clouds: Muy nuboso
Visibility: 7 km
Cloud details: Few Clouds 396 m
Parcialmente nuboso 762 m
Muy nuboso 1067 m
2023/02/07 18:00 LEBL 071800Z 08023G33KT 7000 -RA FEW013 SCT025 BKN035 11/07 Q1025 NOSIG
 
LEVC - Valencia (civ/Mi, Spain
Distance from station: NO 188km
Actualización: Tue, 07-Feb-2023 7:00pm CET
Few Clouds
Few Clouds
 Viento del varies
Viento: varies 4 km/h
Temperatura: 10°C
Rocío: 4°C
Humedad: 67%
Barómetro: 1021 hPa
Clouds: Few Clouds
Visibility: 10 km
Cloud details: Few Clouds 1524 m
2023/02/07 18:00 LEVC 071800Z VRB02KT 9999 FEW050 10/04 Q1021 NOSIG
LEGE - Gerona/Costa Bra, Spain
Distance from station: N 276km
Actualización: Tue, 07-Feb-2023 7:00pm CET
Muy nuboso
Muy nuboso
 Viento del NE
Viento: NE 15 km/h
Temperatura: 9°C
Sensación frio: 7°C
Rocío: 7°C
Humedad: 87%
Barómetro: 1028 hPa
Clouds: Muy nuboso
Visibility: 10 km
Cloud details: Parcialmente nuboso 914 m
Muy nuboso 2286 m
2023/02/07 18:00 LEGE 071800Z 05008KT 9999 SCT030 BKN075 09/07 Q1028
 
LEAL - Alicante/El Alte, Spain
Distance from station: OSO 344km
Actualización: Tue, 07-Feb-2023 7:00pm CET
Few Clouds
Few Clouds
 Viento del NNE
Viento: NNE 13 km/h
Temperatura: 11°C
Rocío: 4°C
Humedad: 62%
Barómetro: 1020 hPa
Clouds: Few Clouds
Visibility: 10 km
Cloud details: Few Clouds 1494 m
2023/02/07 18:00 LEAL 071800Z 02007KT 9999 FEW049 11/04 Q1020 NOSIG
LEAM - Almeria Airport, Spain
Distance from station: SSO 56km
Actualización: Tue, 07-Feb-2023 7:00pm CET
Parcialmente nuboso
Parcialmente nuboso
 Viento del ENE
Viento: ENE 22 km/h
Temperatura: 12°C
Rocío: 6°C
Humedad: 67%
Barómetro: 1018 hPa
Clouds: Parcialmente nuboso
Visibility: 10 km
Cloud details: Few Clouds 1219 m
Parcialmente nuboso 2438 m
2023/02/07 18:00 LEAM 071800Z 06012KT 9999 FEW040 SCT080 12/06 Q1018
 
LEZG - Zaragoza (mil/Ci, Spain
Distance from station: NO 431km
Actualización: Tue, 07-Feb-2023 7:00pm CET
Light drizzle, Cubierto
Light drizzle, Cubierto
 Viento del ONO
Viento: ONO 6 km/h
Temperatura: 5°C
Rocío: 4°C
Humedad: 93%
Barómetro: 1025 hPa
Resumen: Light Drizzle
Clouds: Cubierto
Visibility: 10 km
Cloud details: Parcialmente nuboso 305 m
Muy nuboso 914 m
Cubierto 1829 m
2023/02/07 18:00 LEZG 071800Z 30003KT 9999 -DZ SCT010 BKN030 OVC060 05/04 Q1025
LEMD - Madrid/Barajas, Spain
Distance from station: ONO 234km
Actualización: Tue, 07-Feb-2023 7:00pm CET
Lluvia débil, Muy nuboso
Lluvia débil, Muy nuboso
 Viento del S
Viento: S 19 km/h
Temperatura: 6°C
Sensación frio: 3°C
Rocío: 3°C
Humedad: 81%
Barómetro: 1019 hPa
Resumen: Lluvia débil
Clouds: Muy nuboso
Visibility: 10 km
Cloud details: Parcialmente nuboso 1219 m
Muy nuboso 1524 m
2023/02/07 18:00 LEMD 071800Z 18010KT 150V210 9999 -RA SCT040 BKN050 06/03 Q1019 NOSIG
 
LEGR - Granada Airport, Spain
Distance from station: OSO 62km
Actualización: Tue, 07-Feb-2023 7:00pm CET
Lluvia débil, Cubierto
Lluvia débil, Cubierto
 Viento del ENE
Viento: ENE 7 km/h
Temperatura: 8°C
Sensación frio: 7°C
Rocío: 6°C
Humedad: 87%
Barómetro: 1017 hPa
Resumen: Lluvia débil
Clouds: Cubierto
Visibility: 10 km
Cloud details: Few Clouds 457 m
Cubierto 1128 m
2023/02/07 18:00 LEGR 071800Z 07004KT 9999 -RA FEW015 OVC037 08/06 Q1017
LEMG - Malaga (civ/Mil), Spain
Distance from station: OSO 227km
Actualización: Tue, 07-Feb-2023 7:00pm CET
Lluvia débil, Muy nuboso
Lluvia débil, Muy nuboso
 Viento del O
Viento: O 30 km/h
Temperatura: 9°C
Sensación frio: 5°C
Rocío: 7°C
Humedad: 87%
Barómetro: 1018 hPa
Resumen: Lluvia débil
Clouds: Muy nuboso
Visibility: 7 km
Cloud details: Parcialmente nuboso 792 m
Muy nuboso 1311 m
2023/02/07 18:00 LEMG 071800Z 27016KT 7000 -RA SCT026 BKN043 09/07 Q1018 NOSIG
 
LEZL - Sevilla (civ/Mil, Spain
Distance from station: S 318km
Actualización: Tue, 07-Feb-2023 7:00pm CET
Lluvia, Muy nuboso
Lluvia, Muy nuboso
 Viento del SSO
Viento: SSO 7 km/h
Temperatura: 12°C
Rocío: 8°C
Humedad: 77%
Barómetro: 1017 hPa
Resumen: Lluvia
Clouds: Muy nuboso
Visibility: 10 km
Cloud details: Parcialmente nuboso 914 m
Muy nuboso 1494 m
2023/02/07 18:00 LEZL 071800Z 20004KT 170V240 9999 RA SCT030 BKN049 12/08 Q1017 NOSIG
LEVT - Vitoria, Spain
Distance from station: NO 226km
Actualización: Tue, 07-Feb-2023 7:00pm CET
Muy nuboso
Muy nuboso
 Viento del E
Viento: E 7 km/h
Temperatura: 3°C
Sensación frio: 1°C
Rocío: 1°C
Humedad: 87%
Barómetro: 1024 hPa
Clouds: Muy nuboso
Visibility: 10 km
Cloud details: Few Clouds 488 m
Parcialmente nuboso 1463 m
Muy nuboso 1981 m
2023/02/07 18:00 LEVT 071800Z 09004KT 060V120 9999 FEW016 SCT048 BKN065 03/01 Q1024
 
LEBB - Bilbao/Sondica, Spain
Distance from station: NNO 235km
Actualización: Tue, 07-Feb-2023 7:00pm CET
Parcialmente nuboso
Parcialmente nuboso
 Viento del varies
Viento: varies 2 km/h
Temperatura: 6°C
Rocío: 4°C
Humedad: 87%
Barómetro: 1025 hPa
Clouds: Parcialmente nuboso
Visibility: 10 km
Cloud details: Few Clouds 914 m
Parcialmente nuboso 1829 m
2023/02/07 18:00 LEBB 071800Z VRB01KT 9999 FEW030 SCT060 06/04 Q1025 NOSIG
LESO - San Sebastian/Fu, Spain
Distance from station: N 231km
Actualización: Tue, 07-Feb-2023 7:00pm CET
Few Clouds
Few Clouds
 Viento del varies
Viento: varies 2 km/h
Temperatura: 7°C
Rocío: 4°C
Humedad: 81%
Barómetro: 1026 hPa
Clouds: Few Clouds
Visibility: 10 km
Cloud details: Few Clouds 1067 m
2023/02/07 18:00 LESO 071800Z VRB01KT 9999 FEW035 07/04 Q1026
 
LEVD - Valladolid(Mil/C, Spain
Distance from station: ONO 239km
Actualización: Tue, 07-Feb-2023 7:00pm CET
Despejado
Despejado
 Viento del E
Viento: E 24 km/h
Temperatura: 4°C
Sensación frio: -1°C
Rocío: -3°C
Humedad: 61%
Barómetro: 1018 hPa
Resumen: Despejado
Visibility: greater than 10 km
2023/02/07 18:00 LEVD 071800Z 08013KT CAVOK 04/M03 Q1018
LESA - Salamanca (civ/M, Spain
Distance from station: ONO 349km
Actualización: Tue, 07-Feb-2023 7:00pm CET
Despejado
Despejado
 Viento del ENE
Viento: ENE 11 km/h
Temperatura: 6°C
Sensación frio: 4°C
Rocío: -3°C
Humedad: 53%
Barómetro: 1017 hPa
Resumen: Despejado
Visibility: greater than 10 km
2023/02/07 18:00 LESA 071800Z 07006KT CAVOK 06/M03 Q1017
 
LEXJ - Santander/Paraya, Spain
Distance from station: NNO 247km
Actualización: Tue, 07-Feb-2023 7:00pm CET
Parcialmente nuboso
Parcialmente nuboso
 Viento del ESE
Viento: ESE 9 km/h
Temperatura: 5°C
Sensación frio: 3°C
Rocío: 3°C
Humedad: 87%
Barómetro: 1025 hPa
Clouds: Parcialmente nuboso
Visibility: 10 km
Cloud details: Parcialmente nuboso 610 m
2023/02/07 18:00 LEXJ 071800Z 12005KT 080V140 9999 SCT020 05/03 Q1025
LEAS - Asturias/Aviles, Spain
Distance from station: NO 214km
Actualización: Tue, 07-Feb-2023 7:00pm CET
Muy nuboso
Muy nuboso
 Viento del ENE
Viento: ENE 20 km/h
Temperatura: 6°C
Sensación frio: 2°C
Rocío: 0°C
Humedad: 66%
Barómetro: 1024 hPa
Clouds: Muy nuboso
Visibility: 10 km
Cloud details: Few Clouds 1067 m
Parcialmente nuboso 1524 m
Muy nuboso 1829 m
2023/02/07 18:00 LEAS 071800Z 07011KT 040V120 9999 FEW035 SCT050 BKN060 06/M00 Q1024 TEMPO 3000 RA
 
LECO - La Coruna/Alvedr, Spain
Distance from station: ONO 222km
Actualización: Tue, 07-Feb-2023 7:00pm CET
Parcialmente nuboso
Parcialmente nuboso
 Viento del NE
Viento: NE 20 km/h
Temperatura: 8°C
Sensación frio: 4°C
Rocío: 1°C
Humedad: 62%
Barómetro: 1023 hPa
Clouds: Parcialmente nuboso
Visibility: 10 km
Cloud details: Few Clouds 1189 m
Parcialmente nuboso 1250 m
2023/02/07 18:00 LECO 071800Z 05011KT 030V090 9999 FEW039 SCT041 08/01 Q1023 TEMPO 3000 RA
LEVX - Vigo/Peinador, Spain
Distance from station: O 214km
Actualización: Tue, 07-Feb-2023 7:00pm CET
Despejado
Despejado
 Viento del NE
Viento: NE 20 km/h
Temperatura: 10°C
Sensación frio: 7°C
Rocío: 1°C
Humedad: 54%
Barómetro: 1018 hPa
Resumen: Despejado
Visibility: greater than 10 km
2023/02/07 18:00 LEVX 071800Z 04011KT 360V080 CAVOK 10/01 Q1018 NOSIG